Time;durP1;ratioP1;P1;durP2;ratioP2;P2;SDS_P1;SDS_P2;PMS_P1;PMS_P2;Temp;Humidity;BMP_temperature;BMP_pressure;BME280_temperature;BME280_humidity;BME280_pressure;Samples;Min_cycle;Max_cycle;Signal;HPM_P1;HPM_P2
2022/01/04 00:02:01;;;;;;;437.48;239.05;;;;;;;;;;5091973;28;20487;-70
2022/01/04 00:04:27;;;;;;;442.73;249.60;;;;;;;;;;5093030;28;20031;-69
2022/01/04 00:06:55;;;;;;;398.75;214.23;;;;;;;;;;5092089;28;20452;-69
2022/01/04 00:09:21;;;;;;;417.55;236.27;;;;;;;;;;5093505;28;20074;-70
2022/01/04 00:14:17;;;;;;;406.48;219.48;;;;;;;;;;5093279;28;20113;-70
2022/01/04 00:16:44;;;;;;;443.98;250.23;;;;;;;;;;5093480;28;20028;-70
2022/01/04 00:19:10;;;;;;;446.83;252.43;;;;;;;;;;5092930;28;20178;-70
2022/01/04 00:21:37;;;;;;;340.13;184.77;;;;;;;;;;5093267;28;20035;-70
2022/01/04 00:24:03;;;;;;;410.95;222.07;;;;;;;;;;5091848;28;20031;-69
2022/01/04 00:26:30;;;;;;;343.20;172.80;;;;;;;;;;5091828;28;20032;-69
2022/01/04 00:28:56;;;;;;;364.33;190.40;;;;;;;;;;5093165;28;20099;-69
2022/01/04 00:31:23;;;;;;;413.65;220.70;;;;;;;;;;5091705;28;20744;-69
2022/01/04 00:33:50;;;;;;;365.80;190.90;;;;;;;;;;5093156;28;20020;-69
2022/01/04 00:36:16;;;;;;;434.90;240.52;;;;;;;;;;5093071;28;20071;-69
2022/01/04 00:38:42;;;;;;;391.38;210.70;;;;;;;;;;5095412;28;20028;-69
2022/01/04 00:41:08;;;;;;;432.75;245.57;;;;;;;;;;5095932;28;20032;-69
2022/01/04 00:43:35;;;;;;;448.45;254.85;;;;;;;;;;5097196;28;20110;-69
2022/01/04 00:46:01;;;;;;;441.92;245.20;;;;;;;;;;5095805;28;20020;-69
2022/01/04 00:50:55;;;;;;;436.98;243.90;;;;;;;;;;5096993;28;20439;-69
2022/01/04 00:53:21;;;;;;;455.52;257.63;;;;;;;;;;5097275;28;20137;-67
2022/01/04 00:55:47;;;;;;;436.88;231.43;;;;;;;;;;5097243;28;20138;-68
2022/01/04 00:58:14;;;;;;;426.63;228.18;;;;;;;;;;5096959;28;20107;-70
2022/01/04 01:00:40;;;;;;;401.35;211.88;;;;;;;;;;5096899;28;20572;-70
2022/01/04 01:03:07;;;;;;;390.95;203.50;;;;;;;;;;5095513;28;20479;-69
2022/01/04 01:05:34;;;;;;;382.98;206.38;;;;;;;;;;5095455;28;20032;-69
2022/01/04 01:08:00;;;;;;;403.80;210.60;;;;;;;;;;5095448;28;20031;-70
2022/01/04 01:13:02;;;;;;;406.30;212.95;;;;;;;;;;5096747;28;20032;-70
2022/01/04 01:15:29;;;;;;;388.45;202.93;;;;;;;;;;5095303;28;20028;-69
2022/01/04 01:17:55;;;;;;;420.40;223.90;;;;;;;;;;5096621;28;20063;-68
2022/01/04 01:20:22;;;;;;;430.92;229.95;;;;;;;;;;5094711;28;20052;-70
2022/01/04 01:22:48;;;;;;;438.00;237.75;;;;;;;;;;5096474;28;20115;-67
2022/01/04 01:25:16;;;;;;;449.40;247.93;;;;;;;;;;5096422;28;20081;-67
2022/01/04 01:27:43;;;;;;;435.02;232.07;;;;;;;;;;5096423;28;20165;-67
2022/01/04 01:30:10;;;;;;;452.35;248.52;;;;;;;;;;5096259;28;20028;-67
2022/01/04 01:32:37;;;;;;;453.88;252.35;;;;;;;;;;5096294;28;20433;-69
2022/01/04 01:35:03;;;;;;;450.52;250.13;;;;;;;;;;5096280;28;20078;-68
2022/01/04 01:37:29;;;;;;;471.35;268.15;;;;;;;;;;5096168;28;20042;-67
2022/01/04 01:39:55;;;;;;;483.08;273.63;;;;;;;;;;5094813;28;20119;-70
2022/01/04 01:42:23;;;;;;;401.88;213.00;;;;;;;;;;5096103;28;20032;-70
2022/01/04 01:44:50;;;;;;;389.90;207.18;;;;;;;;;;5096070;28;20035;-69
2022/01/04 01:47:17;;;;;;;384.92;203.00;;;;;;;;;;5096087;28;20442;-68
2022/01/04 01:49:44;;;;;;;368.63;191.43;;;;;;;;;;5094863;28;20553;-67
2022/01/04 01:52:10;;;;;;;403.05;224.65;;;;;;;;;;5095862;28;20032;-66
2022/01/04 01:54:37;;;;;;;399.33;219.80;;;;;;;;;;5095832;28;20032;-68
2022/01/04 01:57:03;;;;;;;399.38;219.02;;;;;;;;;;5094562;28;20122;-68
2022/01/04 01:59:30;;;;;;;424.17;229.43;;;;;;;;;;5095924;28;20069;-68
2022/01/04 02:01:56;;;;;;;416.15;225.82;;;;;;;;;;5095751;28;20111;-69
2022/01/04 02:04:23;;;;;;;415.60;226.02;;;;;;;;;;5094361;28;20028;-69
2022/01/04 02:06:50;;;;;;;425.30;233.82;;;;;;;;;;5094349;28;20484;-69
2022/01/04 02:09:16;;;;;;;393.15;215.63;;;;;;;;;;5095657;28;20031;-69
2022/01/04 02:11:43;;;;;;;365.75;199.55;;;;;;;;;;5094215;28;20426;-69
2022/01/04 02:14:09;;;;;;;372.67;204.32;;;;;;;;;;5095263;28;20362;-69
2022/01/04 02:16:35;;;;;;;356.60;192.15;;;;;;;;;;5094095;28;20028;-70
2022/01/04 02:19:06;;;;;;;356.63;191.82;;;;;;;;;;5093777;28;20087;-68
2022/01/04 02:21:36;;;;;;;361.65;191.30;;;;;;;;;;5095652;28;20375;-70
2022/01/04 02:24:03;;;;;;;355.10;192.57;;;;;;;;;;5094042;28;20024;-70
2022/01/04 02:26:31;;;;;;;378.48;204.75;;;;;;;;;;5095265;28;20016;-70
2022/01/04 02:28:57;;;;;;;372.67;206.63;;;;;;;;;;5095243;28;20481;-69
2022/01/04 02:31:23;;;;;;;378.48;208.80;;;;;;;;;;5093455;28;20127;-70
2022/01/04 02:33:49;;;;;;;416.55;228.45;;;;;;;;;;5095123;28;20020;-70
2022/01/04 02:36:16;;;;;;;423.65;236.18;;;;;;;;;;5095091;28;20052;-70
2022/01/04 02:38:42;;;;;;;428.67;234.73;;;;;;;;;;5095118;28;20099;-71
2022/01/04 02:41:08;;;;;;;410.55;228.98;;;;;;;;;;5093630;28;20028;-69
2022/01/04 02:43:34;;;;;;;416.80;226.18;;;;;;;;;;5093608;28;20031;-70
2022/01/04 02:46:01;;;;;;;411.70;230.75;;;;;;;;;;5095143;28;20093;-69
2022/01/04 02:48:27;;;;;;;425.90;234.55;;;;;;;;;;5093563;28;20456;-70
2022/01/04 02:50:53;;;;;;;419.08;230.68;;;;;;;;;;5094886;28;20044;-70
2022/01/04 02:53:19;;;;;;;434.38;234.05;;;;;;;;;;5093143;28;20073;-68
2022/01/04 02:55:45;;;;;;;427.85;235.05;;;;;;;;;;5093394;28;20028;-69
2022/01/04 02:58:12;;;;;;;439.33;240.80;;;;;;;;;;5093330;28;20024;-66
2022/01/04 03:00:39;;;;;;;408.48;225.60;;;;;;;;;;5094349;28;20032;-70
2022/01/04 03:03:05;;;;;;;362.45;191.57;;;;;;;;;;5093240;28;20028;-69
2022/01/04 03:05:31;;;;;;;401.50;218.57;;;;;;;;;;5094508;28;20518;-69
2022/01/04 03:07:57;;;;;;;384.42;207.07;;;;;;;;;;5094099;28;20380;-69
2022/01/04 03:10:24;;;;;;;372.95;207.93;;;;;;;;;;5093077;28;20064;-69
2022/01/04 03:12:50;;;;;;;384.60;209.02;;;;;;;;;;5094433;28;20179;-70
2022/01/04 03:15:19;;;;;;;407.27;216.65;;;;;;;;;;5094300;28;20111;-71
2022/01/04 03:17:46;;;;;;;390.08;213.38;;;;;;;;;;5094286;28;20024;-71
2022/01/04 03:20:12;;;;;;;377.77;205.80;;;;;;;;;;5093814;28;20044;-69
2022/01/04 03:22:38;;;;;;;401.42;222.10;;;;;;;;;;5092871;28;20078;-71
2022/01/04 03:25:05;;;;;;;394.80;213.75;;;;;;;;;;5093827;28;20024;-68
2022/01/04 03:27:31;;;;;;;404.30;222.68;;;;;;;;;;5094123;28;20338;-70
2022/01/04 03:29:58;;;;;;;430.50;234.77;;;;;;;;;;5093998;28;20024;-69
2022/01/04 03:32:24;;;;;;;424.08;231.70;;;;;;;;;;5093966;28;20103;-69
2022/01/04 03:34:50;;;;;;;425.83;233.90;;;;;;;;;;5093969;28;20028;-68
2022/01/04 03:37:16;;;;;;;437.52;238.05;;;;;;;;;;5093607;28;20500;-70
2022/01/04 03:39:43;;;;;;;433.35;234.30;;;;;;;;;;5093960;28;20119;-69
2022/01/04 03:42:09;;;;;;;429.67;232.02;;;;;;;;;;5093803;28;20114;-68
2022/01/04 03:44:35;;;;;;;423.42;220.68;;;;;;;;;;5093790;28;20112;-69
2022/01/04 03:47:01;;;;;;;414.08;225.77;;;;;;;;;;5093791;28;20032;-69
2022/01/04 03:49:28;;;;;;;406.75;224.60;;;;;;;;;;5093456;28;20474;-70
2022/01/04 03:51:54;;;;;;;410.33;229.52;;;;;;;;;;5093291;28;20459;-69
2022/01/04 03:54:22;;;;;;;430.33;233.52;;;;;;;;;;5093675;28;20036;-70
2022/01/04 03:56:49;;;;;;;389.00;202.40;;;;;;;;;;5093639;28;20028;-70
2022/01/04 03:59:15;;;;;;;396.30;213.60;;;;;;;;;;5093840;28;20107;-69
2022/01/04 04:01:41;;;;;;;361.25;192.85;;;;;;;;;;5093514;28;20115;-70
2022/01/04 04:04:08;;;;;;;349.42;181.52;;;;;;;;;;5093475;28;20364;-71
2022/01/04 04:06:35;;;;;;;364.13;193.98;;;;;;;;;;5093442;28;20055;-69
2022/01/04 04:09:01;;;;;;;372.00;193.52;;;;;;;;;;5092157;28;20430;-72
2022/01/04 04:11:27;;;;;;;363.65;184.43;;;;;;;;;;5091917;28;20043;-69
2022/01/04 04:13:56;;;;;;;343.85;178.23;;;;;;;;;;5092744;28;20107;-69
2022/01/04 04:16:22;;;;;;;330.42;167.90;;;;;;;;;;5091995;28;20475;-69
2022/01/04 04:18:48;;;;;;;346.92;179.30;;;;;;;;;;5093204;28;20043;-70
2022/01/04 04:21:15;;;;;;;344.83;175.65;;;;;;;;;;5091929;28;20114;-69
2022/01/04 04:23:41;;;;;;;331.73;172.75;;;;;;;;;;5091950;28;20119;-69
2022/01/04 04:26:07;;;;;;;330.65;168.40;;;;;;;;;;5091865;28;20433;-68
2022/01/04 04:28:34;;;;;;;267.52;140.07;;;;;;;;;;5091553;28;20035;-70
2022/01/04 04:31:02;;;;;;;299.83;155.02;;;;;;;;;;5093081;28;20036;-69
2022/01/04 04:33:28;;;;;;;309.15;158.43;;;;;;;;;;5093135;28;20035;-71
2022/01/04 04:35:55;;;;;;;283.83;147.43;;;;;;;;;;5093044;28;20130;-70
2022/01/04 04:38:21;;;;;;;292.17;155.95;;;;;;;;;;5091762;28;20465;-70
2022/01/04 04:40:47;;;;;;;325.27;166.82;;;;;;;;;;5091745;28;20028;-69
2022/01/04 04:43:13;;;;;;;329.67;178.30;;;;;;;;;;5091691;28;20476;-70
2022/01/04 04:45:40;;;;;;;332.55;181.05;;;;;;;;;;5092974;28;20024;-69
2022/01/04 04:48:06;;;;;;;332.35;178.93;;;;;;;;;;5092953;28;20064;-69
2022/01/04 04:50:33;;;;;;;335.65;172.73;;;;;;;;;;5092942;28;20114;-72
2022/01/04 04:52:59;;;;;;;332.10;174.57;;;;;;;;;;5092921;28;20020;-68
2022/01/04 04:55:26;;;;;;;341.92;176.73;;;;;;;;;;5093173;28;20032;-68
2022/01/04 04:57:52;;;;;;;343.17;182.68;;;;;;;;;;5091580;28;20028;-68
2022/01/04 05:00:19;;;;;;;339.67;181.57;;;;;;;;;;5092880;28;20028;-67
2022/01/04 05:02:45;;;;;;;335.08;175.43;;;;;;;;;;5092860;28;20020;-69
2022/01/04 05:05:12;;;;;;;325.42;169.77;;;;;;;;;;5092780;28;20032;-68
2022/01/04 05:07:38;;;;;;;293.40;155.27;;;;;;;;;;5091515;28;20161;-68
2022/01/04 05:10:05;;;;;;;331.75;168.13;;;;;;;;;;5092744;28;20473;-68
2022/01/04 05:12:34;;;;;;;357.33;181.70;;;;;;;;;;5093072;28;20035;-69
2022/01/04 05:15:00;;;;;;;323.83;165.93;;;;;;;;;;5092432;28;20454;-69
2022/01/04 05:17:27;;;;;;;282.98;147.75;;;;;;;;;;5092698;28;20375;-70
2022/01/04 05:19:53;;;;;;;307.52;159.98;;;;;;;;;;5092800;28;20059;-69
2022/01/04 05:22:19;;;;;;;319.70;160.77;;;;;;;;;;5092625;28;20056;-70
2022/01/04 05:24:45;;;;;;;330.83;179.48;;;;;;;;;;5094838;28;20024;-70
2022/01/04 05:27:12;;;;;;;367.85;184.27;;;;;;;;;;5096430;28;20035;-72
2022/01/04 05:29:38;;;;;;;370.77;182.30;;;;;;;;;;5096390;28;20032;-69
2022/01/04 05:32:05;;;;;;;366.80;180.23;;;;;;;;;;5095955;28;20089;-71
2022/01/04 05:34:31;;;;;;;457.65;234.43;;;;;;;;;;5096573;28;20150;-71
2022/01/04 05:36:57;;;;;;;435.27;216.10;;;;;;;;;;5096504;28;20103;-70
2022/01/04 05:39:23;;;;;;;456.17;225.60;;;;;;;;;;5094806;28;20039;-68
2022/01/04 05:41:49;;;;;;;405.92;192.18;;;;;;;;;;5096205;28;20040;-68
2022/01/04 05:44:16;;;;;;;422.13;208.73;;;;;;;;;;5096134;28;20055;-67
2022/01/04 05:46:42;;;;;;;433.67;214.75;;;;;;;;;;5096021;28;20039;-72
2022/01/04 05:49:08;;;;;;;404.27;198.07;;;;;;;;;;5096030;28;20024;-72
2022/01/04 05:51:35;;;;;;;375.90;185.25;;;;;;;;;;5095910;28;20115;-71
2022/01/04 05:54:01;;;;;;;364.90;179.00;;;;;;;;;;5095897;28;20062;-68
2022/01/04 05:56:27;;;;;;;354.58;174.30;;;;;;;;;;5095844;28;20021;-68
2022/01/04 05:58:53;;;;;;;358.50;181.43;;;;;;;;;;5095863;28;20112;-67
2022/01/04 06:01:19;;;;;;;359.27;180.85;;;;;;;;;;5094495;28;20054;-69
2022/01/04 06:03:47;;;;;;;346.05;173.73;;;;;;;;;;5094384;28;20119;-69
2022/01/04 06:06:18;;;;;;;352.00;175.88;;;;;;;;;;5095773;28;20471;-68
2022/01/04 06:08:45;;;;;;;342.10;166.30;;;;;;;;;;5095360;28;20488;-69
2022/01/04 06:11:30;;;;;;;346.05;172.98;;;;;;;;;;5095574;28;20380;-69
2022/01/04 06:16:41;;;;;;;329.25;169.48;;;;;;;;;;5095532;28;20035;-69
2022/01/04 06:19:07;;;;;;;268.17;133.88;;;;;;;;;;5093733;28;20054;-67
2022/01/04 06:21:34;;;;;;;325.02;151.68;;;;;;;;;;5095632;28;20442;-69
2022/01/04 06:24:00;;;;;;;295.48;148.80;;;;;;;;;;5095320;28;20028;-68
2022/01/04 06:26:28;;;;;;;280.65;136.75;;;;;;;;;;5095255;28;20090;-69
2022/01/04 06:28:54;;;;;;;218.73;111.40;;;;;;;;;;5095182;28;20035;-66
2022/01/04 06:31:20;;;;;;;208.70;101.07;;;;;;;;;;5093783;28;20064;-66
2022/01/04 06:33:47;;;;;;;305.90;140.60;;;;;;;;;;5095100;28;20027;-67
2022/01/04 06:36:13;;;;;;;295.95;134.93;;;;;;;;;;5094242;28;20107;-67
2022/01/04 06:38:39;;;;;;;284.15;124.88;;;;;;;;;;5094976;28;20024;-69
2022/01/04 06:41:06;;;;;;;268.20;129.02;;;;;;;;;;5094911;28;20028;-68
2022/01/04 06:43:32;;;;;;;250.48;117.18;;;;;;;;;;5093543;28;20028;-68
2022/01/04 06:45:58;;;;;;;215.60;103.45;;;;;;;;;;5093544;28;20575;-68
2022/01/04 06:48:24;;;;;;;227.45;107.03;;;;;;;;;;5094841;28;20448;-68
2022/01/04 06:50:51;;;;;;;243.55;114.38;;;;;;;;;;5093427;28;20542;-68
2022/01/04 06:53:17;;;;;;;242.77;118.90;;;;;;;;;;5094652;28;20031;-68
2022/01/04 06:55:50;;;;;;;253.52;119.32;;;;;;;;;;5094269;28;20024;-68
2022/01/04 06:58:16;;;;;;;258.92;113.18;;;;;;;;;;5094486;28;20081;-67
2022/01/04 07:00:43;;;;;;;257.77;117.32;;;;;;;;;;5094433;28;20028;-68
2022/01/04 07:03:09;;;;;;;249.68;120.43;;;;;;;;;;5094446;28;20108;-67
2022/01/04 07:05:35;;;;;;;263.50;124.30;;;;;;;;;;5094338;28;20524;-67
2022/01/04 07:08:05;;;;;;;276.38;126.00;;;;;;;;;;5093087;28;20461;-67
2022/01/04 07:10:31;;;;;;;240.93;107.28;;;;;;;;;;5094342;28;20040;-67
2022/01/04 07:12:57;;;;;;;216.63;103.10;;;;;;;;;;5092957;28;20471;-66
2022/01/04 07:15:23;;;;;;;213.30;103.35;;;;;;;;;;5092781;28;20464;-68
2022/01/04 07:17:53;;;;;;;250.07;117.63;;;;;;;;;;5094142;28;20130;-70
2022/01/04 07:20:19;;;;;;;258.63;119.32;;;;;;;;;;5092377;28;20080;-73
2022/01/04 07:22:45;;;;;;;223.35;104.03;;;;;;;;;;5094396;28;20108;-70
2022/01/04 07:25:12;;;;;;;226.68;108.05;;;;;;;;;;5093052;28;20517;-68
2022/01/04 07:27:38;;;;;;;232.95;108.95;;;;;;;;;;5092633;28;20028;-67
2022/01/04 07:30:05;;;;;;;226.48;106.13;;;;;;;;;;5093973;28;20055;-68
2022/01/04 07:32:31;;;;;;;273.23;120.80;;;;;;;;;;5092653;28;20132;-71
2022/01/04 07:34:57;;;;;;;303.73;133.43;;;;;;;;;;5093934;28;20031;-69
2022/01/04 07:37:24;;;;;;;262.75;126.28;;;;;;;;;;5094080;28;20035;-66
2022/01/04 07:39:51;;;;;;;241.55;116.43;;;;;;;;;;5093872;28;20039;-67
2022/01/04 07:42:18;;;;;;;244.98;120.00;;;;;;;;;;5093667;28;20067;-70
2022/01/04 07:44:44;;;;;;;220.48;108.95;;;;;;;;;;5093680;28;20097;-74
2022/01/04 07:47:10;;;;;;;217.30;111.47;;;;;;;;;;5093018;28;20074;-66
2022/01/04 07:49:37;;;;;;;233.77;108.80;;;;;;;;;;5093084;28;20372;-66
2022/01/04 07:52:03;;;;;;;195.23;95.63;;;;;;;;;;5093583;28;20473;-66
2022/01/04 07:54:29;;;;;;;184.90;91.65;;;;;;;;;;5092255;28;20028;-66
2022/01/04 07:56:56;;;;;;;197.43;96.28;;;;;;;;;;5093352;28;20024;-67
2022/01/04 07:59:23;;;;;;;178.63;92.10;;;;;;;;;;5093660;28;20516;-67
2022/01/04 08:01:49;;;;;;;193.57;94.85;;;;;;;;;;5093437;28;20133;-68
2022/01/04 08:04:15;;;;;;;184.95;94.93;;;;;;;;;;5093250;28;20032;-69
2022/01/04 08:06:41;;;;;;;199.18;95.63;;;;;;;;;;5093338;28;20450;-68
2022/01/04 08:09:08;;;;;;;188.52;94.30;;;;;;;;;;5093312;28;20036;-68
2022/01/04 08:11:34;;;;;;;152.52;70.82;;;;;;;;;;5093181;28;20078;-67
2022/01/04 08:14:00;;;;;;;146.77;73.03;;;;;;;;;;5093186;28;20056;-66
2022/01/04 08:16:26;;;;;;;140.35;63.65;;;;;;;;;;5092704;28;20460;-68
2022/01/04 08:18:53;;;;;;;137.90;64.28;;;;;;;;;;5092666;28;20151;-67
2022/01/04 08:21:19;;;;;;;88.93;49.00;;;;;;;;;;5091864;28;20492;-68
2022/01/04 08:23:45;;;;;;;90.82;45.38;;;;;;;;;;5093133;28;20028;-66
2022/01/04 08:26:11;;;;;;;77.35;41.97;;;;;;;;;;5093149;28;20028;-67
2022/01/04 08:28:37;;;;;;;82.65;43.97;;;;;;;;;;5093057;28;20130;-68
2022/01/04 08:31:05;;;;;;;78.00;41.78;;;;;;;;;;5092745;28;20028;-68
2022/01/04 08:33:31;;;;;;;86.07;44.22;;;;;;;;;;5093022;28;20016;-68
2022/01/04 08:35:57;;;;;;;87.75;46.22;;;;;;;;;;5091598;28;20059;-67
2022/01/04 08:38:23;;;;;;;97.70;49.38;;;;;;;;;;5093224;28;20469;-66
2022/01/04 08:40:50;;;;;;;92.10;51.53;;;;;;;;;;5092581;28;20111;-68
2022/01/04 08:43:17;;;;;;;86.55;49.28;;;;;;;;;;5092900;28;20039;-66
2022/01/04 08:45:43;;;;;;;93.88;52.33;;;;;;;;;;5091500;28;20039;-68
2022/01/04 08:48:10;;;;;;;95.72;51.35;;;;;;;;;;5092812;28;20414;-69
2022/01/04 08:50:36;;;;;;;82.03;47.47;;;;;;;;;;5092657;28;20028;-67
2022/01/04 08:53:03;;;;;;;85.45;48.50;;;;;;;;;;5092865;28;20032;-67
2022/01/04 08:55:29;;;;;;;85.07;44.40;;;;;;;;;;5092687;28;20028;-66
2022/01/04 08:57:55;;;;;;;83.82;47.47;;;;;;;;;;5092576;28;20103;-67
2022/01/04 09:00:22;;;;;;;86.45;49.50;;;;;;;;;;5096107;28;20028;-68
2022/01/04 09:02:48;;;;;;;93.50;49.05;;;;;;;;;;5095543;28;20533;-68
2022/01/04 09:05:14;;;;;;;98.90;52.45;;;;;;;;;;5095293;28;20028;-67
2022/01/04 09:07:40;;;;;;;102.57;54.53;;;;;;;;;;5095343;28;20074;-67
2022/01/04 09:10:07;;;;;;;110.15;57.67;;;;;;;;;;5096927;28;20032;-67
2022/01/04 09:12:50;;;;;;;107.85;57.15;;;;;;;;;;5095833;28;20032;-68
2022/01/04 09:15:30;;;;;;;108.15;58.05;;;;;;;;;;5096633;28;20051;-67
2022/01/04 09:20:42;;;;;;;116.28;59.38;;;;;;;;;;5096307;28;20109;-68
2022/01/04 09:23:08;;;;;;;104.03;57.70;;;;;;;;;;5096531;28;20020;-69
2022/01/04 09:25:34;;;;;;;114.57;60.22;;;;;;;;;;5095119;28;20051;-68
2022/01/04 09:28:00;;;;;;;114.53;62.58;;;;;;;;;;5095056;28;20118;-68
2022/01/04 09:30:26;;;;;;;106.03;56.45;;;;;;;;;;5096227;28;20028;-68
2022/01/04 09:32:53;;;;;;;108.07;60.22;;;;;;;;;;5095872;28;20115;-68
2022/01/04 09:35:19;;;;;;;111.32;59.03;;;;;;;;;;5095216;28;20032;-68
2022/01/04 09:37:45;;;;;;;119.38;59.83;;;;;;;;;;5096237;28;20134;-68
2022/01/04 09:40:12;;;;;;;112.53;59.47;;;;;;;;;;5096119;28;20373;-67
2022/01/04 09:42:39;;;;;;;112.90;61.08;;;;;;;;;;5096046;28;20024;-68
2022/01/04 09:45:06;;;;;;;116.25;59.88;;;;;;;;;;5095944;28;20016;-67
2022/01/04 09:47:33;;;;;;;109.22;57.03;;;;;;;;;;5095887;28;20031;-68
2022/01/04 09:49:59;;;;;;;101.60;52.58;;;;;;;;;;5094667;28;20111;-67
2022/01/04 09:52:26;;;;;;;80.43;43.97;;;;;;;;;;5094544;28;20035;-68
2022/01/04 09:54:55;;;;;;;82.75;42.83;;;;;;;;;;5096158;28;20059;-68
2022/01/04 09:57:21;;;;;;;80.50;42.95;;;;;;;;;;5095899;28;20059;-68
2022/01/04 09:59:49;;;;;;;60.50;34.85;;;;;;;;;;5095826;28;20461;-68
2022/01/04 10:02:18;;;;;;;76.85;41.40;;;;;;;;;;5095266;28;20034;-68
2022/01/04 10:04:44;;;;;;;69.13;38.03;;;;;;;;;;5095584;28;20024;-68
2022/01/04 10:07:10;;;;;;;71.20;38.78;;;;;;;;;;5095623;28;20016;-68
2022/01/04 10:09:38;;;;;;;60.85;34.97;;;;;;;;;;5095261;28;20047;-67
2022/01/04 10:12:10;;;;;;;69.15;39.17;;;;;;;;;;5092473;28;20477;-68
2022/01/04 10:14:38;;;;;;;;;;;;;;;;;;5095170;28;20029;-68
2022/01/04 10:17:10;;;;;;;50.95;27.88;;;;;;;;;;5093722;28;19916;-68
2022/01/04 10:19:36;;;;;;;47.30;23.95;;;;;;;;;;5095246;28;20048;-68
2022/01/04 10:22:23;;;;;;;42.90;24.08;;;;;;;;;;5095350;28;20020;-69
2022/01/04 10:25:09;;;;;;;38.55;23.10;;;;;;;;;;5095301;28;20377;-68
2022/01/04 10:27:38;;;;;;;53.42;26.15;;;13.60;99.10;;;;;;5095165;28;20032;-68
2022/01/04 10:30:26;;;;;;;48.42;26.48;;;13.80;96.30;;;;;;5095247;28;20060;-68
2022/01/04 10:32:59;;;;;;;53.35;26.65;;;14.40;96.80;;;;;;5093886;28;20032;-69
2022/01/04 10:35:27;;;;;;;44.38;26.02;;;;;;;;;;5094797;28;20357;-68
2022/01/04 10:37:55;;;;;;;48.60;25.55;;;14.80;95.90;;;;;;5093367;28;20115;-68
2022/01/04 10:40:21;;;;;;;43.50;25.42;;;15.70;92.50;;;;;;5095290;28;20507;-69
2022/01/04 10:42:47;;;;;;;42.08;23.25;;;15.70;92.20;;;;;;5093612;28;20031;-69
2022/01/04 10:45:24;;;;;;;35.85;21.65;;;;;;;;;;5094942;28;20028;-69
2022/01/04 10:47:50;;;;;;;36.20;21.70;;;;;;;;;;5094801;28;20028;-68
2022/01/04 10:50:34;;;;;;;42.85;25.90;;;;;;;;;;5094940;28;20020;-68
2022/01/04 10:53:00;;;;;;;37.92;22.75;;;;;;;;;;5094780;28;20065;-71
2022/01/04 10:55:36;;;;;;;40.70;23.25;;;;;;;;;;5094862;28;20062;-69
2022/01/04 10:58:03;;;;;;;39.50;23.35;;;;;;;;;;5094625;28;20024;-68
2022/01/04 11:00:30;;;;;;;35.80;21.50;;;;;;;;;;5094518;28;20020;-68
2022/01/04 11:03:02;;;;;;;29.67;16.77;;;;;;;;;;5094589;28;20028;-70
2022/01/04 11:05:28;;;;;;;23.55;14.43;;;;;;;;;;5094527;28;20059;-70
2022/01/04 11:07:58;;;;;;;17.83;11.10;;;;;;;;;;5093036;28;20024;-70
2022/01/04 11:10:25;;;;;;;11.90;8.07;;;;;;;;;;5094139;28;20024;-70
2022/01/04 11:12:52;;;;;;;13.90;8.70;;;;;;;;;;5094077;28;20040;-70
2022/01/04 11:15:18;;;;;;;11.82;7.28;;;;;;;;;;5092981;28;20020;-68
2022/01/04 11:17:45;;;;;;;14.15;6.97;;;15.60;90.70;;;;;;5094134;28;20047;-68
2022/01/04 11:20:12;;;;;;;9.93;6.63;;;14.30;90.30;;;;;;5093726;28;20048;-69
2022/01/04 11:22:44;;;;;;;19.25;8.55;;;14.30;91.60;;;;;;5094143;28;20055;-69
2022/01/04 11:25:11;;;;;;;18.33;8.27;;;14.40;90.40;;;;;;5092718;28;20326;-68
2022/01/04 11:27:38;;;;;;;14.10;7.70;;;14.50;91.40;;;;;;5094052;28;20103;-69
2022/01/04 11:30:12;;;;;;;23.95;9.15;;;14.50;91.00;;;;;;5093693;28;20107;-69
2022/01/04 11:32:41;;;;;;;20.02;8.13;;;14.50;90.40;;;;;;5093867;28;20042;-70
2022/01/04 11:35:13;;;;;;;23.73;9.30;;;14.50;90.50;;;;;;5093557;28;20064;-69
2022/01/04 11:37:42;;;;;;;17.67;9.02;;;14.40;90.50;;;;;;5092345;28;20118;-68
2022/01/04 11:40:31;;;;;;;22.50;9.50;;;14.40;90.10;;;;;;5092450;28;20036;-69
2022/01/04 11:42:58;;;;;;;17.73;9.40;;;14.40;90.90;;;;;;5093794;28;20506;-69
2022/01/04 11:45:45;;;;;;;25.00;11.52;;;14.40;90.40;;;;;;5093795;28;20124;-69
2022/01/04 11:48:41;;;;;;;22.08;12.23;;;14.40;90.40;;;;;;5093735;28;20024;-68
2022/01/04 11:51:28;;;;;;;32.50;15.85;;;14.40;90.80;;;;;;5093710;28;20028;-70
2022/01/04 11:54:27;;;;;;;27.33;14.75;;;14.40;91.00;;;;;;5093346;28;20553;-71
2022/01/04 11:57:02;;;;;;;27.50;14.60;;;14.50;90.90;;;;;;4994680;28;20559;-70
2022/01/04 11:59:39;;;;;;;30.55;13.60;;;14.50;91.20;;;;;;5011178;28;20042;-70
2022/01/04 12:02:36;;;;;;;26.50;14.82;;;14.50;91.00;;;;;;5011179;28;20049;-71
2022/01/04 12:05:04;;;;;;;32.67;16.60;;;14.40;90.40;;;;;;4994687;28;20029;-69
2022/01/04 12:07:39;;;;;;;32.17;15.23;;;14.50;90.50;;;;;;4994777;28;20048;-72
2022/01/04 12:10:20;;;;;;;24.60;11.10;;;14.50;90.40;;;;;;5011076;28;20537;-71
2022/01/04 12:12:56;;;;;;;24.50;12.25;;;14.50;90.20;;;;;;5011075;28;20045;-70
2022/01/04 12:15:45;;;;;;;26.40;13.43;;;14.60;90.00;;;;;;4994528;28;20121;-70
2022/01/04 12:18:22;;;;;;;30.05;14.60;;;14.60;90.30;;;;;;4985188;28;20038;-68
2022/01/04 12:20:50;;;;;;;30.75;15.57;;;14.70;90.40;;;;;;4994365;28;20040;-69
2022/01/04 12:23:29;;;;;;;36.30;17.98;;;14.70;90.10;;;;;;4994385;28;20040;-68
2022/01/04 12:26:04;;;;;;;32.30;18.63;;;14.70;89.70;;;;;;5010810;28;20038;-69
2022/01/04 12:28:39;;;;;;;35.17;19.70;;;14.70;90.00;;;;;;5010808;28;20045;-69
2022/01/04 12:31:13;;;;;;;42.47;22.35;;;14.80;89.80;;;;;;5010954;28;20038;-69
2022/01/04 12:33:55;;;;;;;49.42;23.80;;;14.80;90.30;;;;;;5090045;28;20043;-70
2022/01/04 12:36:34;;;;;;;61.10;28.15;;;14.80;89.70;;;;;;5090487;28;20055;-69
2022/01/04 12:39:02;;;;;;;54.10;27.88;;;14.70;89.90;;;;;;5093211;28;20028;-70
2022/01/04 12:41:31;;;;;;;59.50;29.33;;;14.70;90.50;;;;;;5092840;28;20035;-69
2022/01/04 12:44:02;;;;;;;56.95;28.95;;;14.70;90.30;;;;;;5092951;28;20426;-69
2022/01/04 12:46:34;;;;;;;62.33;30.27;;;14.70;90.20;;;;;;5090531;28;20032;-71
2022/01/04 12:49:03;;;;;;;59.03;29.02;;;14.70;90.40;;;;;;5092746;28;20037;-67
2022/01/04 12:51:34;;;;;;;44.80;24.85;;;14.80;90.30;;;;;;5092449;28;20495;-67
2022/01/04 12:54:03;;;;;;;44.40;25.55;;;14.70;89.40;;;;;;5091628;28;20024;-67
2022/01/04 12:56:29;;;;;;;49.67;29.63;;;14.70;90.20;;;;;;5093059;28;20107;-66
2022/01/04 12:58:57;;;;;;;55.28;29.55;;;14.70;90.40;;;;;;5091375;28;20030;-67
2022/01/04 13:01:26;;;;;;;50.38;29.80;;;14.70;90.20;;;;;;5092729;28;20024;-67
2022/01/04 13:03:52;;;;;;;48.70;26.95;;;14.70;90.30;;;;;;5091524;28;20427;-67
2022/01/04 13:06:18;;;;;;;59.35;28.58;;;14.70;90.40;;;;;;5092314;28;20034;-67
2022/01/04 13:08:58;;;;;;;51.55;29.27;;;14.70;90.10;;;;;;5092267;28;20107;-68
2022/01/04 13:11:25;;;;;;;66.15;34.58;;;14.70;90.30;;;;;;5092090;28;20184;-67
2022/01/04 13:13:55;;;;;;;70.20;38.70;;;14.70;90.20;;;;;;5092355;28;20031;-67
2022/01/04 13:16:31;;;;;;;88.32;48.38;;;14.60;91.00;;;;;;5090590;28;20020;-68
2022/01/04 13:19:13;;;;;;;86.05;45.15;;;14.50;92.30;;;;;;5086402;28;20377;-67
2022/01/04 13:21:39;;;;;;;;;;;14.40;92.70;;;;;;5093013;28;20098;-67
2022/01/04 13:24:11;;;;;;;90.30;42.97;;;14.30;92.80;;;;;;5092583;28;20355;-67
2022/01/04 13:26:37;;;;;;;77.63;43.17;;;14.20;93.20;;;;;;5092440;28;20024;-68
2022/01/04 13:29:03;;;;;;;85.70;43.63;;;14.20;93.30;;;;;;5092545;28;20028;-68
2022/01/04 13:31:29;;;;;;;86.55;45.30;;;14.20;93.80;;;;;;5092300;28;20039;-67
2022/01/04 13:33:56;;;;;;;84.22;43.83;;;14.20;93.50;;;;;;5091042;28;20067;-67
2022/01/04 13:36:23;;;;;;;82.35;42.75;;;14.20;93.40;;;;;;5092147;28;20031;-67
2022/01/04 13:38:50;;;;;;;82.80;42.63;;;14.30;93.40;;;;;;5092320;28;20039;-67
2022/01/04 13:41:35;;;;;;;88.63;46.30;;;14.30;93.50;;;;;;5090298;28;20040;-67
2022/01/04 13:44:05;;;;;;;101.05;49.92;;;14.30;93.70;;;;;;5092141;28;20024;-68
2022/01/04 13:46:34;;;;;;;95.47;49.53;;;14.20;93.80;;;;;;5094023;28;20035;-67
2022/01/04 13:49:00;;;;;;;87.60;43.55;;;14.20;94.00;;;;;;5096004;28;20039;-68
2022/01/04 13:51:30;;;;;;;83.72;42.42;;;14.10;93.70;;;;;;5094877;28;20040;-67
2022/01/04 13:53:59;;;;;;;82.93;45.60;;;14.20;93.70;;;;;;5091922;28;20020;-68
2022/01/04 13:56:31;;;;;;;80.30;42.22;;;14.10;94.00;;;;;;5094229;28;20464;-67
2022/01/04 13:58:58;;;;;;;72.07;39.95;;;14.20;93.60;;;;;;5091050;28;20105;-68